sensor_id;sensor_type;location;lat;lon;timestamp;P1;durP1;ratioP1;P2;durP2;ratioP2
10315;SDS011;5203;48.976;8.306;2023-06-14T00:00:18;9.50;;;8.70;;
10315;SDS011;5203;48.976;8.306;2023-06-14T00:02:44;9.73;;;9.13;;
10315;SDS011;5203;48.976;8.306;2023-06-14T00:05:10;9.57;;;8.88;;
10315;SDS011;5203;48.976;8.306;2023-06-14T00:07:39;9.77;;;9.07;;
10315;SDS011;5203;48.976;8.306;2023-06-14T00:10:08;10.38;;;9.45;;
10315;SDS011;5203;48.976;8.306;2023-06-14T00:12:35;9.88;;;9.18;;
10315;SDS011;5203;48.976;8.306;2023-06-14T00:15:01;9.90;;;9.25;;
10315;SDS011;5203;48.976;8.306;2023-06-14T00:17:28;10.02;;;9.32;;
10315;SDS011;5203;48.976;8.306;2023-06-14T00:19:55;9.95;;;9.25;;
10315;SDS011;5203;48.976;8.306;2023-06-14T00:22:22;10.43;;;9.63;;
10315;SDS011;5203;48.976;8.306;2023-06-14T00:24:49;9.95;;;9.15;;
10315;SDS011;5203;48.976;8.306;2023-06-14T00:27:18;9.27;;;8.57;;
10315;SDS011;5203;48.976;8.306;2023-06-14T00:29:44;9.68;;;8.98;;
10315;SDS011;5203;48.976;8.306;2023-06-14T00:32:09;9.35;;;8.75;;
10315;SDS011;5203;48.976;8.306;2023-06-14T00:34:35;9.90;;;9.00;;
10315;SDS011;5203;48.976;8.306;2023-06-14T00:37:01;9.13;;;8.52;;
10315;SDS011;5203;48.976;8.306;2023-06-14T00:39:26;9.23;;;8.52;;
10315;SDS011;5203;48.976;8.306;2023-06-14T00:41:52;9.27;;;8.57;;
10315;SDS011;5203;48.976;8.306;2023-06-14T00:44:18;10.52;;;9.55;;
10315;SDS011;5203;48.976;8.306;2023-06-14T00:46:46;10.18;;;9.38;;
10315;SDS011;5203;48.976;8.306;2023-06-14T00:49:12;9.52;;;8.93;;
10315;SDS011;5203;48.976;8.306;2023-06-14T00:51:40;9.90;;;9.20;;
10315;SDS011;5203;48.976;8.306;2023-06-14T00:54:10;10.82;;;10.02;;
10315;SDS011;5203;48.976;8.306;2023-06-14T00:56:36;9.70;;;8.90;;
10315;SDS011;5203;48.976;8.306;2023-06-14T00:59:02;9.48;;;8.75;;
10315;SDS011;5203;48.976;8.306;2023-06-14T01:01:28;9.25;;;8.55;;
10315;SDS011;5203;48.976;8.306;2023-06-14T01:03:57;9.43;;;8.77;;
10315;SDS011;5203;48.976;8.306;2023-06-14T01:06:34;9.52;;;8.73;;
10315;SDS011;5203;48.976;8.306;2023-06-14T01:09:31;9.48;;;8.77;;
10315;SDS011;5203;48.976;8.306;2023-06-14T01:12:28;9.52;;;8.73;;
10315;SDS011;5203;48.976;8.306;2023-06-14T01:15:15;9.48;;;8.73;;
10315;SDS011;5203;48.976;8.306;2023-06-14T01:17:41;9.40;;;8.60;;
10315;SDS011;5203;48.976;8.306;2023-06-14T01:20:10;8.95;;;8.25;;
10315;SDS011;5203;48.976;8.306;2023-06-14T01:22:47;9.32;;;8.65;;
10315;SDS011;5203;48.976;8.306;2023-06-14T01:25:17;8.75;;;8.15;;
10315;SDS011;5203;48.976;8.306;2023-06-14T01:27:51;8.90;;;8.30;;
10315;SDS011;5203;48.976;8.306;2023-06-14T01:30:17;8.75;;;8.15;;
10315;SDS011;5203;48.976;8.306;2023-06-14T01:32:44;9.23;;;8.52;;
10315;SDS011;5203;48.976;8.306;2023-06-14T01:35:11;8.60;;;8.07;;
10315;SDS011;5203;48.976;8.306;2023-06-14T01:37:37;8.15;;;7.55;;
10315;SDS011;5203;48.976;8.306;2023-06-14T01:40:04;8.73;;;8.00;;
10315;SDS011;5203;48.976;8.306;2023-06-14T01:42:35;8.45;;;7.65;;
10315;SDS011;5203;48.976;8.306;2023-06-14T01:45:03;8.82;;;8.02;;
10315;SDS011;5203;48.976;8.306;2023-06-14T01:47:31;8.50;;;7.80;;
10315;SDS011;5203;48.976;8.306;2023-06-14T01:49:57;8.20;;;7.50;;
10315;SDS011;5203;48.976;8.306;2023-06-14T01:52:23;8.70;;;8.00;;
10315;SDS011;5203;48.976;8.306;2023-06-14T01:54:49;8.18;;;7.57;;
10315;SDS011;5203;48.976;8.306;2023-06-14T01:57:16;8.30;;;7.72;;
10315;SDS011;5203;48.976;8.306;2023-06-14T01:59:41;8.50;;;7.80;;
10315;SDS011;5203;48.976;8.306;2023-06-14T02:02:07;7.78;;;7.22;;
10315;SDS011;5203;48.976;8.306;2023-06-14T02:04:33;8.32;;;7.72;;
10315;SDS011;5203;48.976;8.306;2023-06-14T02:06:59;7.72;;;7.22;;
10315;SDS011;5203;48.976;8.306;2023-06-14T02:09:25;8.07;;;7.45;;
10315;SDS011;5203;48.976;8.306;2023-06-14T02:11:51;8.00;;;7.40;;
10315;SDS011;5203;48.976;8.306;2023-06-14T02:14:17;7.90;;;7.20;;
10315;SDS011;5203;48.976;8.306;2023-06-14T02:16:43;8.25;;;7.55;;
10315;SDS011;5203;48.976;8.306;2023-06-14T02:19:14;7.70;;;7.10;;
10315;SDS011;5203;48.976;8.306;2023-06-14T02:21:41;8.32;;;7.72;;
10315;SDS011;5203;48.976;8.306;2023-06-14T02:24:07;7.90;;;7.07;;
10315;SDS011;5203;48.976;8.306;2023-06-14T02:26:33;7.90;;;7.13;;
10315;SDS011;5203;48.976;8.306;2023-06-14T02:28:59;7.50;;;6.90;;
10315;SDS011;5203;48.976;8.306;2023-06-14T02:31:24;7.10;;;6.40;;
10315;SDS011;5203;48.976;8.306;2023-06-14T02:33:51;7.77;;;7.17;;
10315;SDS011;5203;48.976;8.306;2023-06-14T02:36:16;7.07;;;6.53;;
10315;SDS011;5203;48.976;8.306;2023-06-14T02:38:42;7.57;;;7.00;;
10315;SDS011;5203;48.976;8.306;2023-06-14T02:41:08;7.40;;;6.87;;
10315;SDS011;5203;48.976;8.306;2023-06-14T02:43:33;7.50;;;6.97;;
10315;SDS011;5203;48.976;8.306;2023-06-14T02:45:59;7.30;;;6.80;;
10315;SDS011;5203;48.976;8.306;2023-06-14T02:48:25;8.88;;;7.00;;
10315;SDS011;5203;48.976;8.306;2023-06-14T02:50:51;8.18;;;7.57;;
10315;SDS011;5203;48.976;8.306;2023-06-14T02:53:17;7.72;;;7.13;;
10315;SDS011;5203;48.976;8.306;2023-06-14T02:55:42;7.93;;;7.20;;
10315;SDS011;5203;48.976;8.306;2023-06-14T02:58:09;8.68;;;7.90;;
10315;SDS011;5203;48.976;8.306;2023-06-14T03:00:34;7.60;;;6.97;;
10315;SDS011;5203;48.976;8.306;2023-06-14T03:03:01;7.63;;;6.90;;
10315;SDS011;5203;48.976;8.306;2023-06-14T03:05:27;8.10;;;6.93;;
10315;SDS011;5203;48.976;8.306;2023-06-14T03:07:53;7.47;;;6.70;;
10315;SDS011;5203;48.976;8.306;2023-06-14T03:10:19;7.63;;;7.00;;
10315;SDS011;5203;48.976;8.306;2023-06-14T03:12:45;7.85;;;7.07;;
10315;SDS011;5203;48.976;8.306;2023-06-14T03:15:12;7.82;;;7.32;;
10315;SDS011;5203;48.976;8.306;2023-06-14T03:17:42;8.50;;;7.63;;
10315;SDS011;5203;48.976;8.306;2023-06-14T03:20:10;8.00;;;7.50;;
10315;SDS011;5203;48.976;8.306;2023-06-14T03:22:36;7.93;;;7.30;;
10315;SDS011;5203;48.976;8.306;2023-06-14T03:25:02;8.15;;;7.38;;
10315;SDS011;5203;48.976;8.306;2023-06-14T03:27:29;8.60;;;7.90;;
10315;SDS011;5203;48.976;8.306;2023-06-14T03:29:54;8.05;;;7.50;;
10315;SDS011;5203;48.976;8.306;2023-06-14T03:32:20;7.85;;;7.20;;
10315;SDS011;5203;48.976;8.306;2023-06-14T03:34:46;8.55;;;7.85;;
10315;SDS011;5203;48.976;8.306;2023-06-14T03:37:12;8.13;;;7.28;;
10315;SDS011;5203;48.976;8.306;2023-06-14T03:39:37;7.93;;;7.22;;
10315;SDS011;5203;48.976;8.306;2023-06-14T03:42:10;10.95;;;9.88;;
10315;SDS011;5203;48.976;8.306;2023-06-14T03:44:36;8.18;;;7.60;;
10315;SDS011;5203;48.976;8.306;2023-06-14T03:47:02;8.35;;;7.57;;
10315;SDS011;5203;48.976;8.306;2023-06-14T03:49:28;8.40;;;7.82;;
10315;SDS011;5203;48.976;8.306;2023-06-14T03:51:53;8.68;;;7.95;;
10315;SDS011;5203;48.976;8.306;2023-06-14T03:54:20;8.60;;;7.88;;
10315;SDS011;5203;48.976;8.306;2023-06-14T03:56:46;8.73;;;8.02;;
10315;SDS011;5203;48.976;8.306;2023-06-14T03:59:12;9.52;;;8.63;;
10315;SDS011;5203;48.976;8.306;2023-06-14T04:01:38;8.50;;;7.90;;
10315;SDS011;5203;48.976;8.306;2023-06-14T04:04:10;8.82;;;8.13;;
10315;SDS011;5203;48.976;8.306;2023-06-14T04:06:36;8.38;;;7.78;;
10315;SDS011;5203;48.976;8.306;2023-06-14T04:09:02;10.30;;;8.32;;
10315;SDS011;5203;48.976;8.306;2023-06-14T04:11:28;8.50;;;7.90;;
10315;SDS011;5203;48.976;8.306;2023-06-14T04:13:54;8.65;;;7.90;;
10315;SDS011;5203;48.976;8.306;2023-06-14T04:16:21;8.95;;;8.27;;
10315;SDS011;5203;48.976;8.306;2023-06-14T04:18:47;8.50;;;7.82;;
10315;SDS011;5203;48.976;8.306;2023-06-14T04:21:16;8.73;;;8.05;;
10315;SDS011;5203;48.976;8.306;2023-06-14T04:23:42;8.43;;;7.82;;
10315;SDS011;5203;48.976;8.306;2023-06-14T04:26:08;8.32;;;7.72;;
10315;SDS011;5203;48.976;8.306;2023-06-14T04:28:35;8.70;;;8.20;;
10315;SDS011;5203;48.976;8.306;2023-06-14T04:31:06;9.40;;;8.60;;
10315;SDS011;5203;48.976;8.306;2023-06-14T04:33:33;8.98;;;8.05;;
10315;SDS011;5203;48.976;8.306;2023-06-14T04:36:08;9.82;;;9.02;;
10315;SDS011;5203;48.976;8.306;2023-06-14T04:38:36;8.57;;;8.00;;
10315;SDS011;5203;48.976;8.306;2023-06-14T04:41:02;9.05;;;8.15;;
10315;SDS011;5203;48.976;8.306;2023-06-14T04:43:28;9.82;;;9.13;;
10315;SDS011;5203;48.976;8.306;2023-06-14T04:45:54;9.70;;;9.02;;
10315;SDS011;5203;48.976;8.306;2023-06-14T04:48:21;9.75;;;8.75;;
10315;SDS011;5203;48.976;8.306;2023-06-14T04:50:47;9.20;;;8.40;;
10315;SDS011;5203;48.976;8.306;2023-06-14T04:53:18;8.98;;;8.18;;
10315;SDS011;5203;48.976;8.306;2023-06-14T04:55:47;9.48;;;8.68;;
10315;SDS011;5203;48.976;8.306;2023-06-14T04:58:13;9.27;;;8.38;;
10315;SDS011;5203;48.976;8.306;2023-06-14T05:00:39;9.65;;;8.95;;
10315;SDS011;5203;48.976;8.306;2023-06-14T05:03:07;9.18;;;8.38;;
10315;SDS011;5203;48.976;8.306;2023-06-14T05:05:33;9.63;;;8.93;;
10315;SDS011;5203;48.976;8.306;2023-06-14T05:07:59;9.00;;;8.32;;
10315;SDS011;5203;48.976;8.306;2023-06-14T05:10:25;10.07;;;9.23;;
10315;SDS011;5203;48.976;8.306;2023-06-14T05:12:51;9.38;;;8.68;;
10315;SDS011;5203;48.976;8.306;2023-06-14T05:15:18;9.63;;;8.80;;
10315;SDS011;5203;48.976;8.306;2023-06-14T05:17:45;10.55;;;9.35;;
10315;SDS011;5203;48.976;8.306;2023-06-14T05:20:18;9.43;;;8.73;;
10315;SDS011;5203;48.976;8.306;2023-06-14T05:22:43;9.35;;;8.65;;
10315;SDS011;5203;48.976;8.306;2023-06-14T05:25:09;9.77;;;8.95;;
10315;SDS011;5203;48.976;8.306;2023-06-14T05:27:35;9.70;;;8.80;;
10315;SDS011;5203;48.976;8.306;2023-06-14T05:30:02;10.77;;;9.13;;
10315;SDS011;5203;48.976;8.306;2023-06-14T05:32:28;9.57;;;8.68;;
10315;SDS011;5203;48.976;8.306;2023-06-14T05:34:54;9.50;;;8.73;;
10315;SDS011;5203;48.976;8.306;2023-06-14T05:37:20;10.80;;;9.25;;
10315;SDS011;5203;48.976;8.306;2023-06-14T05:39:47;9.27;;;8.48;;
10315;SDS011;5203;48.976;8.306;2023-06-14T05:42:12;9.57;;;8.73;;
10315;SDS011;5203;48.976;8.306;2023-06-14T05:44:38;9.90;;;9.18;;
10315;SDS011;5203;48.976;8.306;2023-06-14T05:47:04;9.57;;;8.88;;
10315;SDS011;5203;48.976;8.306;2023-06-14T05:49:29;10.20;;;9.30;;
10315;SDS011;5203;48.976;8.306;2023-06-14T05:51:56;11.18;;;10.18;;
10315;SDS011;5203;48.976;8.306;2023-06-14T05:54:21;23.15;;;20.52;;
10315;SDS011;5203;48.976;8.306;2023-06-14T05:56:47;13.30;;;12.02;;
10315;SDS011;5203;48.976;8.306;2023-06-14T05:59:12;13.60;;;12.43;;
10315;SDS011;5203;48.976;8.306;2023-06-14T06:01:38;16.08;;;14.38;;
10315;SDS011;5203;48.976;8.306;2023-06-14T06:04:05;10.10;;;9.27;;
10315;SDS011;5203;48.976;8.306;2023-06-14T06:06:31;9.15;;;8.43;;
10315;SDS011;5203;48.976;8.306;2023-06-14T06:08:57;8.93;;;8.27;;
10315;SDS011;5203;48.976;8.306;2023-06-14T06:11:23;9.60;;;8.80;;
10315;SDS011;5203;48.976;8.306;2023-06-14T06:13:49;9.55;;;8.68;;
10315;SDS011;5203;48.976;8.306;2023-06-14T06:16:15;9.55;;;8.50;;
10315;SDS011;5203;48.976;8.306;2023-06-14T06:18:41;9.25;;;8.55;;
10315;SDS011;5203;48.976;8.306;2023-06-14T06:21:06;9.68;;;8.77;;
10315;SDS011;5203;48.976;8.306;2023-06-14T06:23:32;9.63;;;8.68;;
10315;SDS011;5203;48.976;8.306;2023-06-14T06:25:58;9.45;;;8.55;;
10315;SDS011;5203;48.976;8.306;2023-06-14T06:28:23;9.43;;;8.63;;
10315;SDS011;5203;48.976;8.306;2023-06-14T06:30:49;9.63;;;8.82;;
10315;SDS011;5203;48.976;8.306;2023-06-14T06:33:15;9.45;;;8.75;;
10315;SDS011;5203;48.976;8.306;2023-06-14T06:35:41;8.95;;;8.25;;
10315;SDS011;5203;48.976;8.306;2023-06-14T06:38:07;9.80;;;8.82;;
10315;SDS011;5203;48.976;8.306;2023-06-14T06:40:35;9.02;;;8.10;;
10315;SDS011;5203;48.976;8.306;2023-06-14T06:43:01;9.02;;;8.38;;
10315;SDS011;5203;48.976;8.306;2023-06-14T06:45:28;10.48;;;9.65;;
10315;SDS011;5203;48.976;8.306;2023-06-14T06:47:54;10.13;;;9.23;;
10315;SDS011;5203;48.976;8.306;2023-06-14T06:50:20;9.27;;;8.48;;
10315;SDS011;5203;48.976;8.306;2023-06-14T06:52:48;9.73;;;8.98;;
10315;SDS011;5203;48.976;8.306;2023-06-14T06:55:14;9.77;;;8.88;;
10315;SDS011;5203;48.976;8.306;2023-06-14T06:57:39;9.23;;;8.63;;
10315;SDS011;5203;48.976;8.306;2023-06-14T07:00:07;9.93;;;9.25;;
10315;SDS011;5203;48.976;8.306;2023-06-14T07:02:34;9.75;;;8.48;;
10315;SDS011;5203;48.976;8.306;2023-06-14T07:05:00;10.00;;;9.00;;
10315;SDS011;5203;48.976;8.306;2023-06-14T07:07:26;9.32;;;8.68;;
10315;SDS011;5203;48.976;8.306;2023-06-14T07:09:51;9.07;;;8.48;;
10315;SDS011;5203;48.976;8.306;2023-06-14T07:12:17;9.95;;;9.02;;
10315;SDS011;5203;48.976;8.306;2023-06-14T07:14:43;9.77;;;9.05;;
10315;SDS011;5203;48.976;8.306;2023-06-14T07:17:08;10.30;;;9.50;;
10315;SDS011;5203;48.976;8.306;2023-06-14T07:19:34;9.95;;;9.07;;
10315;SDS011;5203;48.976;8.306;2023-06-14T07:22:00;10.15;;;9.35;;
10315;SDS011;5203;48.976;8.306;2023-06-14T07:24:26;11.05;;;10.00;;
10315;SDS011;5203;48.976;8.306;2023-06-14T07:26:53;10.40;;;9.32;;
10315;SDS011;5203;48.976;8.306;2023-06-14T07:29:20;9.38;;;8.77;;
10315;SDS011;5203;48.976;8.306;2023-06-14T07:31:46;9.70;;;9.00;;
10315;SDS011;5203;48.976;8.306;2023-06-14T07:34:12;10.25;;;9.32;;
10315;SDS011;5203;48.976;8.306;2023-06-14T07:36:38;9.20;;;8.60;;
10315;SDS011;5203;48.976;8.306;2023-06-14T07:39:04;10.40;;;9.52;;
10315;SDS011;5203;48.976;8.306;2023-06-14T07:41:31;9.63;;;8.82;;
10315;SDS011;5203;48.976;8.306;2023-06-14T07:43:57;9.38;;;8.65;;
10315;SDS011;5203;48.976;8.306;2023-06-14T07:46:23;9.90;;;9.00;;
10315;SDS011;5203;48.976;8.306;2023-06-14T07:48:49;10.57;;;9.77;;
10315;SDS011;5203;48.976;8.306;2023-06-14T07:51:15;10.18;;;9.35;;
10315;SDS011;5203;48.976;8.306;2023-06-14T07:53:41;10.10;;;9.18;;
10315;SDS011;5203;48.976;8.306;2023-06-14T07:56:07;11.23;;;10.30;;
10315;SDS011;5203;48.976;8.306;2023-06-14T07:58:33;10.77;;;9.98;;
10315;SDS011;5203;48.976;8.306;2023-06-14T08:00:59;10.55;;;9.85;;
10315;SDS011;5203;48.976;8.306;2023-06-14T08:03:26;11.65;;;10.50;;
10315;SDS011;5203;48.976;8.306;2023-06-14T08:05:52;10.55;;;9.85;;
10315;SDS011;5203;48.976;8.306;2023-06-14T08:08:17;11.15;;;10.25;;
10315;SDS011;5203;48.976;8.306;2023-06-14T08:10:43;10.70;;;9.82;;
10315;SDS011;5203;48.976;8.306;2023-06-14T08:13:09;11.07;;;10.35;;
10315;SDS011;5203;48.976;8.306;2023-06-14T08:15:35;10.75;;;9.88;;
10315;SDS011;5203;48.976;8.306;2023-06-14T08:18:01;14.23;;;13.48;;
10315;SDS011;5203;48.976;8.306;2023-06-14T08:20:27;11.45;;;10.73;;
10315;SDS011;5203;48.976;8.306;2023-06-14T08:22:52;12.13;;;11.43;;
10315;SDS011;5203;48.976;8.306;2023-06-14T08:25:21;12.65;;;11.60;;
10315;SDS011;5203;48.976;8.306;2023-06-14T08:27:48;13.43;;;12.48;;
10315;SDS011;5203;48.976;8.306;2023-06-14T08:30:14;14.00;;;12.95;;
10315;SDS011;5203;48.976;8.306;2023-06-14T08:32:40;13.07;;;12.20;;
10315;SDS011;5203;48.976;8.306;2023-06-14T08:35:05;13.95;;;13.10;;
10315;SDS011;5203;48.976;8.306;2023-06-14T08:37:32;14.30;;;13.20;;
10315;SDS011;5203;48.976;8.306;2023-06-14T08:40:01;14.68;;;13.88;;
10315;SDS011;5203;48.976;8.306;2023-06-14T08:42:29;13.93;;;13.02;;
10315;SDS011;5203;48.976;8.306;2023-06-14T08:44:57;14.65;;;13.68;;
10315;SDS011;5203;48.976;8.306;2023-06-14T08:47:23;13.27;;;12.43;;
10315;SDS011;5203;48.976;8.306;2023-06-14T08:49:51;15.07;;;13.57;;
10315;SDS011;5203;48.976;8.306;2023-06-14T08:52:22;15.23;;;14.05;;
10315;SDS011;5203;48.976;8.306;2023-06-14T08:54:49;14.95;;;14.13;;
10315;SDS011;5203;48.976;8.306;2023-06-14T08:57:15;15.57;;;14.75;;
10315;SDS011;5203;48.976;8.306;2023-06-14T08:59:45;15.50;;;14.50;;
10315;SDS011;5203;48.976;8.306;2023-06-14T09:02:14;14.63;;;13.82;;
10315;SDS011;5203;48.976;8.306;2023-06-14T09:04:43;14.88;;;14.07;;
10315;SDS011;5203;48.976;8.306;2023-06-14T09:07:09;15.48;;;14.25;;
10315;SDS011;5203;48.976;8.306;2023-06-14T09:09:39;15.57;;;14.35;;
10315;SDS011;5203;48.976;8.306;2023-06-14T09:12:07;15.38;;;14.15;;
10315;SDS011;5203;48.976;8.306;2023-06-14T09:14:36;15.38;;;14.38;;
10315;SDS011;5203;48.976;8.306;2023-06-14T09:17:03;15.05;;;14.00;;
10315;SDS011;5203;48.976;8.306;2023-06-14T09:19:29;14.85;;;13.85;;
10315;SDS011;5203;48.976;8.306;2023-06-14T09:21:55;15.15;;;13.98;;
10315;SDS011;5203;48.976;8.306;2023-06-14T09:24:21;14.82;;;13.82;;
10315;SDS011;5203;48.976;8.306;2023-06-14T09:26:50;16.17;;;14.65;;
10315;SDS011;5203;48.976;8.306;2023-06-14T09:29:16;14.30;;;13.50;;
10315;SDS011;5203;48.976;8.306;2023-06-14T09:31:43;14.10;;;13.25;;
10315;SDS011;5203;48.976;8.306;2023-06-14T09:34:10;14.23;;;13.32;;
10315;SDS011;5203;48.976;8.306;2023-06-14T09:36:36;14.32;;;13.63;;
10315;SDS011;5203;48.976;8.306;2023-06-14T09:39:05;14.82;;;13.93;;
10315;SDS011;5203;48.976;8.306;2023-06-14T09:41:33;14.43;;;13.32;;
10315;SDS011;5203;48.976;8.306;2023-06-14T09:44:01;14.68;;;13.77;;
10315;SDS011;5203;48.976;8.306;2023-06-14T09:46:28;14.43;;;13.63;;
10315;SDS011;5203;48.976;8.306;2023-06-14T09:48:57;14.02;;;13.32;;
10315;SDS011;5203;48.976;8.306;2023-06-14T09:51:24;13.77;;;12.98;;
10315;SDS011;5203;48.976;8.306;2023-06-14T09:53:51;14.75;;;13.68;;
10315;SDS011;5203;48.976;8.306;2023-06-14T09:58:57;16.67;;;15.90;;
10315;SDS011;5203;48.976;8.306;2023-06-14T10:01:25;18.63;;;17.60;;
10315;SDS011;5203;48.976;8.306;2023-06-14T10:03:57;18.35;;;17.27;;
10315;SDS011;5203;48.976;8.306;2023-06-14T10:06:28;19.75;;;18.60;;
10315;SDS011;5203;48.976;8.306;2023-06-14T10:08:56;19.65;;;18.77;;
10315;SDS011;5203;48.976;8.306;2023-06-14T10:11:26;18.75;;;17.85;;
10315;SDS011;5203;48.976;8.306;2023-06-14T10:13:53;17.67;;;16.73;;
10315;SDS011;5203;48.976;8.306;2023-06-14T10:16:24;18.83;;;17.70;;
10315;SDS011;5203;48.976;8.306;2023-06-14T10:18:54;18.90;;;17.80;;
10315;SDS011;5203;48.976;8.306;2023-06-14T10:21:38;19.13;;;18.20;;
10315;SDS011;5203;48.976;8.306;2023-06-14T10:24:34;20.08;;;18.92;;
10315;SDS011;5203;48.976;8.306;2023-06-14T10:27:06;18.52;;;17.70;;
10315;SDS011;5203;48.976;8.306;2023-06-14T10:30:01;19.23;;;18.02;;
10315;SDS011;5203;48.976;8.306;2023-06-14T10:32:21;19.63;;;18.65;;
10315;SDS011;5203;48.976;8.306;2023-06-14T10:34:53;21.75;;;20.63;;
10315;SDS011;5203;48.976;8.306;2023-06-14T10:37:23;21.50;;;20.17;;
10315;SDS011;5203;48.976;8.306;2023-06-14T10:39:50;20.45;;;19.35;;
10315;SDS011;5203;48.976;8.306;2023-06-14T10:42:16;22.05;;;20.98;;
10315;SDS011;5203;48.976;8.306;2023-06-14T10:44:45;21.92;;;20.83;;
10315;SDS011;5203;48.976;8.306;2023-06-14T10:50:03;21.15;;;20.15;;
10315;SDS011;5203;48.976;8.306;2023-06-14T10:52:32;23.65;;;22.25;;
10315;SDS011;5203;48.976;8.306;2023-06-14T10:55:15;24.60;;;23.27;;
10315;SDS011;5203;48.976;8.306;2023-06-14T10:57:44;23.58;;;22.55;;
10315;SDS011;5203;48.976;8.306;2023-06-14T11:00:17;22.95;;;22.00;;
10315;SDS011;5203;48.976;8.306;2023-06-14T11:02:51;22.42;;;21.35;;
10315;SDS011;5203;48.976;8.306;2023-06-14T11:11:12;27.55;;;26.15;;
10315;SDS011;5203;48.976;8.306;2023-06-14T11:13:39;27.67;;;26.38;;
10315;SDS011;5203;48.976;8.306;2023-06-14T11:16:10;26.02;;;24.77;;
10315;SDS011;5203;48.976;8.306;2023-06-14T11:18:39;26.83;;;25.63;;
10315;SDS011;5203;48.976;8.306;2023-06-14T11:21:06;27.98;;;26.67;;
10315;SDS011;5203;48.976;8.306;2023-06-14T11:23:31;28.10;;;26.90;;
10315;SDS011;5203;48.976;8.306;2023-06-14T11:25:57;27.35;;;26.15;;
10315;SDS011;5203;48.976;8.306;2023-06-14T11:28:23;26.83;;;25.73;;
10315;SDS011;5203;48.976;8.306;2023-06-14T11:31:01;25.30;;;24.20;;
10315;SDS011;5203;48.976;8.306;2023-06-14T11:33:27;22.95;;;21.75;;
10315;SDS011;5203;48.976;8.306;2023-06-14T11:35:52;27.33;;;25.58;;
10315;SDS011;5203;48.976;8.306;2023-06-14T11:38:18;28.20;;;27.00;;
10315;SDS011;5203;48.976;8.306;2023-06-14T11:40:44;27.52;;;26.27;;
10315;SDS011;5203;48.976;8.306;2023-06-14T11:43:10;27.15;;;25.83;;
10315;SDS011;5203;48.976;8.306;2023-06-14T11:45:38;27.13;;;25.73;;
10315;SDS011;5203;48.976;8.306;2023-06-14T11:48:04;26.98;;;25.67;;
10315;SDS011;5203;48.976;8.306;2023-06-14T11:50:31;25.77;;;24.75;;
10315;SDS011;5203;48.976;8.306;2023-06-14T11:53:01;28.48;;;27.23;;
10315;SDS011;5203;48.976;8.306;2023-06-14T11:55:41;28.13;;;26.83;;
10315;SDS011;5203;48.976;8.306;2023-06-14T11:58:10;29.92;;;28.27;;
10315;SDS011;5203;48.976;8.306;2023-06-14T12:00:36;27.75;;;26.38;;
10315;SDS011;5203;48.976;8.306;2023-06-14T12:03:02;27.83;;;26.63;;
10315;SDS011;5203;48.976;8.306;2023-06-14T12:05:28;27.13;;;25.92;;
10315;SDS011;5203;48.976;8.306;2023-06-14T12:08:01;27.92;;;26.65;;
10315;SDS011;5203;48.976;8.306;2023-06-14T12:10:28;27.90;;;26.80;;
10315;SDS011;5203;48.976;8.306;2023-06-14T12:12:58;29.02;;;27.73;;
10315;SDS011;5203;48.976;8.306;2023-06-14T12:15:24;29.60;;;27.95;;
10315;SDS011;5203;48.976;8.306;2023-06-14T12:17:53;27.02;;;25.67;;
10315;SDS011;5203;48.976;8.306;2023-06-14T12:20:19;27.92;;;26.27;;
10315;SDS011;5203;48.976;8.306;2023-06-14T12:22:56;27.50;;;25.95;;
10315;SDS011;5203;48.976;8.306;2023-06-14T12:25:27;27.55;;;25.98;;
10315;SDS011;5203;48.976;8.306;2023-06-14T12:27:58;25.27;;;24.25;;
10315;SDS011;5203;48.976;8.306;2023-06-14T12:30:24;26.25;;;25.15;;
10315;SDS011;5203;48.976;8.306;2023-06-14T12:32:50;26.77;;;25.50;;
10315;SDS011;5203;48.976;8.306;2023-06-14T12:35:16;27.50;;;25.95;;
10315;SDS011;5203;48.976;8.306;2023-06-14T12:37:44;27.85;;;26.55;;
10315;SDS011;5203;48.976;8.306;2023-06-14T12:40:10;28.15;;;26.90;;
10315;SDS011;5203;48.976;8.306;2023-06-14T12:42:37;28.10;;;26.63;;
10315;SDS011;5203;48.976;8.306;2023-06-14T12:45:03;25.60;;;24.45;;
10315;SDS011;5203;48.976;8.306;2023-06-14T12:47:29;28.00;;;26.52;;
10315;SDS011;5203;48.976;8.306;2023-06-14T12:49:55;26.40;;;25.13;;
10315;SDS011;5203;48.976;8.306;2023-06-14T12:52:21;27.40;;;26.10;;
10315;SDS011;5203;48.976;8.306;2023-06-14T12:54:47;25.38;;;24.23;;
10315;SDS011;5203;48.976;8.306;2023-06-14T12:57:12;24.30;;;23.25;;
10315;SDS011;5203;48.976;8.306;2023-06-14T12:59:38;25.15;;;23.92;;
10315;SDS011;5203;48.976;8.306;2023-06-14T13:02:13;26.45;;;25.00;;
10315;SDS011;5203;48.976;8.306;2023-06-14T13:04:40;25.27;;;24.23;;
10315;SDS011;5203;48.976;8.306;2023-06-14T13:07:06;25.15;;;24.05;;
10315;SDS011;5203;48.976;8.306;2023-06-14T13:09:32;26.60;;;25.15;;
10315;SDS011;5203;48.976;8.306;2023-06-14T13:11:58;26.35;;;24.77;;
10315;SDS011;5203;48.976;8.306;2023-06-14T13:14:23;26.52;;;25.33;;
10315;SDS011;5203;48.976;8.306;2023-06-14T13:16:49;25.10;;;23.88;;
10315;SDS011;5203;48.976;8.306;2023-06-14T13:19:15;22.48;;;21.48;;
10315;SDS011;5203;48.976;8.306;2023-06-14T13:21:41;23.27;;;22.27;;
10315;SDS011;5203;48.976;8.306;2023-06-14T13:24:06;23.60;;;22.50;;
10315;SDS011;5203;48.976;8.306;2023-06-14T13:26:33;24.02;;;22.67;;
10315;SDS011;5203;48.976;8.306;2023-06-14T13:28:59;24.30;;;23.20;;
10315;SDS011;5203;48.976;8.306;2023-06-14T13:31:24;24.90;;;23.85;;
10315;SDS011;5203;48.976;8.306;2023-06-14T13:33:50;26.27;;;25.27;;
10315;SDS011;5203;48.976;8.306;2023-06-14T13:36:16;28.23;;;27.02;;
10315;SDS011;5203;48.976;8.306;2023-06-14T13:38:42;28.83;;;27.45;;
10315;SDS011;5203;48.976;8.306;2023-06-14T13:41:08;27.95;;;26.67;;
10315;SDS011;5203;48.976;8.306;2023-06-14T13:43:33;26.92;;;25.63;;
10315;SDS011;5203;48.976;8.306;2023-06-14T13:45:59;26.23;;;25.02;;
10315;SDS011;5203;48.976;8.306;2023-06-14T13:48:25;26.40;;;25.35;;
10315;SDS011;5203;48.976;8.306;2023-06-14T13:50:51;28.67;;;27.38;;
10315;SDS011;5203;48.976;8.306;2023-06-14T13:53:17;28.50;;;27.30;;
10315;SDS011;5203;48.976;8.306;2023-06-14T13:55:42;27.85;;;26.02;;
10315;SDS011;5203;48.976;8.306;2023-06-14T13:58:08;26.98;;;25.75;;
10315;SDS011;5203;48.976;8.306;2023-06-14T14:00:34;27.00;;;25.90;;
10315;SDS011;5203;48.976;8.306;2023-06-14T14:03:02;29.77;;;28.67;;
10315;SDS011;5203;48.976;8.306;2023-06-14T14:05:28;32.75;;;31.10;;
10315;SDS011;5203;48.976;8.306;2023-06-14T14:07:55;31.55;;;29.92;;
10315;SDS011;5203;48.976;8.306;2023-06-14T14:10:22;29.77;;;28.42;;
10315;SDS011;5203;48.976;8.306;2023-06-14T14:12:49;29.75;;;28.45;;
10315;SDS011;5203;48.976;8.306;2023-06-14T14:15:16;27.95;;;26.67;;
10315;SDS011;5203;48.976;8.306;2023-06-14T14:17:41;25.42;;;24.33;;
10315;SDS011;5203;48.976;8.306;2023-06-14T14:20:08;26.05;;;24.88;;
10315;SDS011;5203;48.976;8.306;2023-06-14T14:22:34;25.83;;;24.70;;
10315;SDS011;5203;48.976;8.306;2023-06-14T14:25:00;26.63;;;25.60;;
10315;SDS011;5203;48.976;8.306;2023-06-14T14:27:25;25.35;;;24.35;;
10315;SDS011;5203;48.976;8.306;2023-06-14T14:29:51;24.45;;;23.45;;
10315;SDS011;5203;48.976;8.306;2023-06-14T14:32:17;25.83;;;24.63;;
10315;SDS011;5203;48.976;8.306;2023-06-14T14:34:42;25.58;;;24.58;;
10315;SDS011;5203;48.976;8.306;2023-06-14T14:37:08;25.60;;;24.58;;
10315;SDS011;5203;48.976;8.306;2023-06-14T14:39:34;25.20;;;24.17;;
10315;SDS011;5203;48.976;8.306;2023-06-14T14:42:02;25.85;;;24.45;;
10315;SDS011;5203;48.976;8.306;2023-06-14T14:44:27;24.88;;;23.58;;
10315;SDS011;5203;48.976;8.306;2023-06-14T14:46:53;26.42;;;25.13;;
10315;SDS011;5203;48.976;8.306;2023-06-14T14:49:19;25.35;;;24.35;;
10315;SDS011;5203;48.976;8.306;2023-06-14T14:51:45;26.63;;;25.42;;
10315;SDS011;5203;48.976;8.306;2023-06-14T14:54:11;28.30;;;27.20;;
10315;SDS011;5203;48.976;8.306;2023-06-14T14:56:36;30.90;;;29.70;;
10315;SDS011;5203;48.976;8.306;2023-06-14T14:59:03;31.85;;;30.55;;